Time;durP1;ratioP1;P1;durP2;ratioP2;P2;SDS_P1;SDS_P2;PMS_P1;PMS_P2;Temp;Humidity;BMP_temperature;BMP_pressure;BME280_temperature;BME280_humidity;BME280_pressure;Samples;Min_cycle;Max_cycle;Signal;HPM_P1;HPM_P2
2023/07/10 00:05:32;;;;;;;17.70;10.88;;;19.50;99.90;;;;;;5076235;28;20028;-88
2023/07/10 00:07:59;;;;;;;20.30;11.57;;;19.50;99.90;;;;;;5042740;28;20033;-88
2023/07/10 00:18:55;;;;;;;14.93;10.23;;;19.60;99.90;;;;;;5076902;28;20082;-88
2023/07/10 01:28:47;;;;;;;12.52;6.43;;;19.30;99.90;;;;;;5100177;28;20110;-88
2023/07/10 01:31:17;;;;;;;11.55;6.05;;;19.30;99.90;;;;;;5065553;28;20036;-88
2023/07/10 01:57:58;;;;;;;7.40;4.00;;;19.10;99.90;;;;;;5100078;28;20257;-88
2023/07/10 02:38:38;;;;;;;3.30;1.85;;;18.50;99.90;;;;;;5077450;28;20028;-88
2023/07/10 02:46:54;;;;;;;5.75;2.22;;;18.50;99.90;;;;;;5078446;28;20039;-89
2023/07/10 03:03:17;;;;;;;6.57;2.40;;;18.40;99.90;;;;;;5078166;28;20031;-88
2023/07/10 03:15:12;;;;;;;6.93;2.90;;;18.30;99.90;;;;;;5077225;28;20020;-89
2023/07/10 03:27:19;;;;;;;5.50;2.95;;;18.20;99.90;;;;;;5089430;28;20052;-89
2023/07/10 03:48:27;;;;;;;7.28;2.75;;;18.20;99.90;;;;;;5075774;28;20383;-88
2023/07/10 04:19:11;;;;;;;8.35;3.47;;;18.20;99.90;;;;;;5058995;28;20036;-88
2023/07/10 04:21:39;;;;;;;10.15;3.90;;;18.20;99.90;;;;;;5039191;28;20033;-88
2023/07/10 04:24:05;;;;;;;8.88;3.50;;;18.20;99.90;;;;;;5029443;28;20040;-88
2023/07/10 04:26:33;;;;;;;10.73;3.40;;;18.30;99.90;;;;;;5057568;28;20127;-88
2023/07/10 04:29:02;;;;;;;9.52;4.00;;;18.30;99.90;;;;;;5025473;28;20041;-88
2023/07/10 04:32:02;;;;;;;7.28;3.50;;;18.30;99.90;;;;;;5042600;28;20029;-88
2023/07/10 04:44:17;;;;;;;8.93;3.67;;;18.30;99.90;;;;;;5075519;28;20024;-88
2023/07/10 05:10:16;;;;;;;9.00;3.80;;;18.40;99.90;;;;;;5080452;28;20092;-88
2023/07/10 05:12:53;;;;;;;10.88;3.85;;;18.40;99.90;;;;;;5029199;28;20442;-89
2023/07/10 05:40:00;;;;;;;11.23;4.20;;;18.50;99.90;;;;;;5079608;28;20032;-88
2023/07/10 05:42:26;;;;;;;11.88;4.03;;;18.40;99.90;;;;;;5010331;28;20348;-88
2023/07/10 05:44:52;;;;;;;12.05;3.67;;;18.50;99.90;;;;;;4998004;28;20144;-89
2023/07/10 05:51:09;;;;;;;12.15;4.10;;;18.60;99.90;;;;;;5025462;28;20036;-89
2023/07/10 05:58:27;;;;;;;10.27;3.42;;;18.70;99.90;;;;;;5038630;28;20033;-89
2023/07/10 06:00:59;;;;;;;14.13;3.70;;;18.70;99.90;;;;;;5001993;28;20037;-88
2023/07/10 06:03:26;;;;;;;11.70;3.63;;;18.70;99.90;;;;;;5019451;28;20031;-88
2023/07/10 06:05:58;;;;;;;11.85;3.38;;;18.80;99.90;;;;;;5005143;28;20029;-89
2023/07/10 06:08:28;;;;;;;11.32;3.70;;;18.80;99.90;;;;;;5003672;28;20033;-88
2023/07/10 06:10:58;;;;;;;11.35;3.47;;;18.80;99.90;;;;;;5002595;28;20459;-89
2023/07/10 06:13:25;;;;;;;10.10;2.85;;;18.80;99.90;;;;;;5008945;28;20116;-89
2023/07/10 06:16:05;;;;;;;12.65;3.80;;;18.90;99.90;;;;;;5021416;28;20040;-89
2023/07/10 06:18:31;;;;;;;11.73;3.08;;;18.90;99.90;;;;;;5003788;28;20037;-89
2023/07/10 06:21:00;;;;;;;11.13;3.20;;;18.90;99.90;;;;;;4970407;28;20033;-89
2023/07/10 06:23:29;;;;;;;10.52;3.55;;;19.00;99.90;;;;;;5020428;28;20087;-89
2023/07/10 06:25:59;;;;;;;15.52;3.70;;;19.00;99.90;;;;;;5021345;28;20033;-89
2023/07/10 06:28:26;;;;;;;9.65;3.50;;;19.00;99.90;;;;;;5005963;28;20034;-89
2023/07/10 06:31:04;;;;;;;9.88;3.15;;;19.10;99.90;;;;;;5040964;28;20035;-89
2023/07/10 06:33:34;;;;;;;14.60;3.80;;;19.10;99.90;;;;;;5041745;28;20024;-88
2023/07/10 06:36:08;;;;;;;10.40;2.95;;;19.10;99.90;;;;;;5040789;28;20080;-89
2023/07/10 06:39:28;;;;;;;13.88;3.85;;;19.20;99.90;;;;;;5055664;28;20040;-89
2023/07/10 06:41:59;;;;;;;12.70;3.22;;;19.20;99.90;;;;;;5008907;28;20032;-89
2023/07/10 06:44:31;;;;;;;12.75;3.45;;;19.30;99.90;;;;;;5042550;28;20102;-89
2023/07/10 06:47:00;;;;;;;12.85;3.53;;;19.30;99.90;;;;;;5044954;28;20051;-89
2023/07/10 06:50:03;;;;;;;14.27;3.20;;;19.40;99.90;;;;;;5045105;28;20047;-89
2023/07/10 06:52:29;;;;;;;11.43;3.08;;;19.40;99.90;;;;;;5044347;28;20410;-89
2023/07/10 06:54:55;;;;;;;12.90;3.70;;;19.40;99.90;;;;;;5060654;28;20072;-89
2023/07/10 06:57:21;;;;;;;11.30;3.10;;;19.50;99.90;;;;;;5060486;28;20040;-89
2023/07/10 06:59:55;;;;;;;10.20;3.17;;;19.50;99.90;;;;;;5044288;28;20028;-89
2023/07/10 07:02:21;;;;;;;12.98;3.85;;;19.50;99.90;;;;;;5043973;28;20315;-88
2023/07/10 07:04:50;;;;;;;15.55;3.40;;;19.50;99.90;;;;;;5043980;28;20089;-89
2023/07/10 07:07:26;;;;;;;14.35;3.78;;;19.50;99.90;;;;;;5044438;28;20028;-89
2023/07/10 07:09:56;;;;;;;13.93;3.20;;;19.60;99.90;;;;;;5044219;28;20416;-90
2023/07/10 07:12:23;;;;;;;13.27;3.80;;;19.60;99.90;;;;;;5043604;28;20047;-89
2023/07/10 07:14:52;;;;;;;13.70;3.25;;;19.60;99.90;;;;;;5043735;28;20052;-89
2023/07/10 07:17:20;;;;;;;14.40;3.47;;;19.70;99.90;;;;;;5055111;28;20028;-89
2023/07/10 07:19:51;;;;;;;13.55;3.40;;;19.80;99.90;;;;;;5044769;28;20033;-90
2023/07/10 07:22:26;;;;;;;13.57;3.28;;;19.70;99.90;;;;;;5043707;28;20024;-90
2023/07/10 07:25:00;;;;;;;15.55;3.58;;;19.80;99.90;;;;;;5043797;28;20024;-90
2023/07/10 07:27:31;;;;;;;14.90;4.25;;;19.90;99.90;;;;;;5077731;28;20311;-89
2023/07/10 07:30:05;;;;;;;15.40;3.38;;;20.00;99.90;;;;;;5027494;28;20206;-89
2023/07/10 07:32:34;;;;;;;14.25;3.85;;;20.00;99.90;;;;;;5043663;28;20033;-90
2023/07/10 07:35:05;;;;;;;16.10;4.20;;;20.10;99.90;;;;;;5043937;28;20060;-89
2023/07/10 07:37:40;;;;;;;16.05;3.85;;;20.10;99.90;;;;;;5043378;28;20424;-89
2023/07/10 07:40:08;;;;;;;14.27;3.72;;;20.10;99.90;;;;;;5076601;28;20024;-89
2023/07/10 07:42:38;;;;;;;18.77;4.32;;;20.10;99.90;;;;;;5060160;28;20043;-89
2023/07/10 07:45:09;;;;;;;20.63;4.30;;;20.20;99.90;;;;;;5026991;28;20040;-89
2023/07/10 07:47:40;;;;;;;12.90;3.70;;;20.30;99.90;;;;;;5043518;28;20036;-90
2023/07/10 07:50:25;;;;;;;15.02;4.57;;;20.40;99.90;;;;;;5045460;28;20366;-90
2023/07/10 07:52:54;;;;;;;15.65;3.85;;;20.40;99.90;;;;;;5026567;28;20101;-90
2023/07/10 07:55:32;;;;;;;19.00;4.93;;;20.40;99.90;;;;;;5060977;28;20060;-90
2023/07/10 07:58:12;;;;;;;19.70;4.15;;;20.50;99.90;;;;;;5060354;28;20028;-90
2023/07/10 08:00:48;;;;;;;;;;;;;;;;;;;;;
2023/07/10 08:03:19;;;;;;;17.08;3.65;;;20.60;99.90;;;;;;5097405;28;20058;-89
2023/07/10 08:05:48;;;;;;;17.70;3.63;;;20.60;99.90;;;;;;5062763;28;20056;-89
2023/07/10 08:08:16;;;;;;;15.85;3.45;;;20.70;99.90;;;;;;5047549;28;20042;-90
2023/07/10 08:10:51;;;;;;;14.90;3.80;;;20.80;99.90;;;;;;5063318;28;20047;-91
2023/07/10 08:13:20;;;;;;;11.47;3.40;;;20.80;99.90;;;;;;5046706;28;20042;-90
2023/07/10 08:15:58;;;;;;;15.70;3.97;;;20.90;99.90;;;;;;5081073;28;20272;-90
2023/07/10 08:18:41;;;;;;;14.85;4.00;;;20.90;99.90;;;;;;5080440;28;20020;-90
2023/07/10 08:21:21;;;;;;;13.23;3.90;;;21.00;99.90;;;;;;5062301;28;20033;-89
2023/07/10 08:23:52;;;;;;;12.88;3.20;;;21.10;99.90;;;;;;5062820;28;20081;-90
2023/07/10 08:26:37;;;;;;;15.40;3.58;;;21.10;99.90;;;;;;5062527;28;20040;-90
2023/07/10 08:29:30;;;;;;;18.30;4.10;;;21.20;99.90;;;;;;5079411;28;20055;-90
2023/07/10 08:32:00;;;;;;;15.93;4.70;;;21.30;99.90;;;;;;5062434;28;20032;-90
2023/07/10 08:34:27;;;;;;;12.00;3.47;;;21.40;99.90;;;;;;5046108;28;20275;-91
2023/07/10 08:36:54;;;;;;;14.20;3.95;;;21.40;99.90;;;;;;5045515;28;20040;-91
2023/07/10 08:39:24;;;;;;;11.45;3.25;;;21.50;99.90;;;;;;5062289;28;20046;-90
2023/07/10 08:42:10;;;;;;;13.35;3.35;;;21.50;99.90;;;;;;5027045;28;20025;-90
2023/07/10 08:44:43;;;;;;;15.55;3.90;;;21.60;99.90;;;;;;5042958;28;20032;-92
2023/07/10 08:47:16;;;;;;;20.27;3.63;;;21.50;99.90;;;;;;5058816;28;20052;-90
2023/07/10 08:49:54;;;;;;;13.75;3.38;;;21.50;99.90;;;;;;5078237;28;20028;-90
2023/07/10 08:52:34;;;;;;;11.35;3.17;;;21.50;99.90;;;;;;5042336;28;20028;-90
2023/07/10 08:55:14;;;;;;;10.45;3.38;;;21.60;99.90;;;;;;5075812;28;20089;-90
2023/07/10 08:57:43;;;;;;;;;;;21.60;99.90;;;;;;5041435;28;20132;-90
2023/07/10 09:00:14;;;;;;;13.52;3.30;;;21.60;99.90;;;;;;5066212;28;19935;-90
2023/07/10 09:03:24;;;;;;;17.10;3.70;;;21.70;99.90;;;;;;5052115;28;20323;-90
2023/07/10 09:05:53;;;;;;;15.02;3.47;;;21.80;99.90;;;;;;5065973;28;20127;-90
2023/07/10 09:08:54;;;;;;;13.35;4.45;;;21.80;99.90;;;;;;5080300;28;20021;-90
2023/07/10 09:11:33;;;;;;;13.57;3.80;;;21.80;99.90;;;;;;5061762;28;20370;-90
2023/07/10 09:14:34;;;;;;;13.07;3.88;;;21.80;99.90;;;;;;5059475;28;20029;-90
2023/07/10 09:17:40;;;;;;;16.63;3.78;;;21.70;99.90;;;;;;5042871;28;20021;-90
2023/07/10 09:20:10;;;;;;;15.45;4.03;;;21.60;99.90;;;;;;5072538;28;20160;-90
2023/07/10 09:22:52;;;;;;;15.63;3.78;;;21.50;99.90;;;;;;5057160;28;20037;-90
2023/07/10 09:25:21;;;;;;;19.67;3.95;;;21.60;99.90;;;;;;5045432;28;20358;-90
2023/07/10 09:27:50;;;;;;;15.00;3.78;;;21.70;99.90;;;;;;5044993;28;20033;-89
2023/07/10 09:30:26;;;;;;;17.52;3.88;;;21.80;99.90;;;;;;5043191;28;20351;-89
2023/07/10 09:33:03;;;;;;;;;;;21.90;99.90;;;;;;5045945;28;20032;-90
2023/07/10 09:35:35;;;;;;;16.83;3.63;;;22.00;99.90;;;;;;5049357;28;19908;-90
2023/07/10 09:38:10;;;;;;;14.10;3.88;;;22.10;99.90;;;;;;5063354;28;20482;-91
2023/07/10 09:40:40;;;;;;;17.95;4.20;;;22.20;99.90;;;;;;5050661;28;20129;-90
2023/07/10 09:43:15;;;;;;;12.68;3.35;;;22.30;99.90;;;;;;5055210;28;20043;-92
2023/07/10 09:45:58;;;;;;;17.00;3.88;;;22.40;99.90;;;;;;5061167;28;20418;-90
2023/07/10 09:48:34;;;;;;;14.98;3.67;;;22.40;99.90;;;;;;5059621;28;20032;-90
2023/07/10 09:51:08;;;;;;;12.02;3.60;;;22.40;99.90;;;;;;5044406;28;20107;-90
2023/07/10 09:53:45;;;;;;;16.55;3.92;;;22.40;99.90;;;;;;5058763;28;20032;-90
2023/07/10 09:56:39;;;;;;;18.60;4.15;;;22.50;99.90;;;;;;5043077;28;20070;-89
2023/07/10 09:59:20;;;;;;;18.15;4.13;;;22.50;99.90;;;;;;5075229;28;20040;-90
2023/07/10 10:01:51;;;;;;;15.00;3.78;;;22.60;99.90;;;;;;5056177;28;20415;-89
2023/07/10 10:04:23;;;;;;;13.32;3.45;;;22.70;99.90;;;;;;5065205;28;20024;-90
2023/07/10 10:07:07;;;;;;;11.88;3.47;;;22.80;99.90;;;;;;5065723;28;20028;-89
2023/07/10 10:09:35;;;;;;;15.35;3.60;;;22.80;99.90;;;;;;5044769;28;20033;-90
2023/07/10 10:12:29;;;;;;;15.02;3.80;;;22.80;99.90;;;;;;5046022;28;20024;-91
2023/07/10 10:15:04;;;;;;;16.08;3.10;;;22.90;99.90;;;;;;5030200;28;20074;-89
2023/07/10 10:17:42;;;;;;;12.63;3.42;;;22.90;99.90;;;;;;5047228;28;20308;-89
2023/07/10 10:20:19;;;;;;;15.50;3.58;;;23.00;99.90;;;;;;5028675;28;20119;-93
2023/07/10 10:22:46;;;;;;;12.32;3.50;;;23.10;99.90;;;;;;5080119;28;20024;-90
2023/07/10 10:25:17;;;;;;;15.35;3.90;;;23.20;99.90;;;;;;5064347;28;20024;-90
2023/07/10 10:27:56;;;;;;;12.52;3.28;;;23.30;99.90;;;;;;5049363;28;20122;-90
2023/07/10 10:30:37;;;;;;;11.00;3.13;;;23.30;99.90;;;;;;5065178;28;20050;-90
2023/07/10 10:33:54;;;;;;;12.65;3.50;;;23.50;99.90;;;;;;5075382;28;20116;-89
2023/07/10 10:36:35;;;;;;;14.80;3.15;;;23.60;99.90;;;;;;5027688;28;20416;-90
2023/07/10 10:39:21;;;;;;;10.85;2.55;;;23.70;99.90;;;;;;5058293;28;20072;-89
2023/07/10 10:41:58;;;;;;;11.95;3.10;;;23.80;99.90;;;;;;5047761;28;20035;-90
2023/07/10 10:44:35;;;;;;;11.60;2.60;;;23.90;99.90;;;;;;5054549;28;20119;-89
2023/07/10 10:47:07;;;;;;;11.00;2.58;;;24.10;99.90;;;;;;5029035;28;20048;-90
2023/07/10 10:49:42;;;;;;;15.80;3.72;;;24.10;99.90;;;;;;5042041;28;20028;-90
2023/07/10 10:52:43;;;;;;;10.40;2.40;;;24.20;99.90;;;;;;5063243;28;20362;-90
2023/07/10 10:55:24;;;;;;;9.95;2.40;;;24.30;99.90;;;;;;5034106;28;20028;-90
2023/07/10 10:58:24;;;;;;;13.40;2.70;;;24.20;99.90;;;;;;5073393;28;20059;-94
2023/07/10 11:01:09;;;;;;;7.30;2.28;;;24.00;99.90;;;;;;5049910;28;20457;-89
2023/07/10 11:03:57;;;;;;;10.65;2.83;;;23.90;99.90;;;;;;5048111;28;20115;-90
2023/07/10 11:06:46;;;;;;;9.25;2.42;;;23.80;99.90;;;;;;5063280;28;20418;-90
2023/07/10 11:09:32;;;;;;;9.48;2.65;;;23.70;99.90;;;;;;5035347;28;20172;-89
2023/07/10 11:12:05;;;;;;;11.68;2.88;;;23.60;99.90;;;;;;5055142;28;20415;-91
2023/07/10 11:14:39;;;;;;;10.57;2.75;;;23.60;99.90;;;;;;5041503;28;20043;-90
2023/07/10 11:17:10;;;;;;;9.50;2.67;;;23.50;99.90;;;;;;5037301;28;20483;-89
2023/07/10 11:19:41;;;;;;;8.63;2.65;;;23.40;99.90;;;;;;5047362;28;20024;-91
2023/07/10 11:22:31;;;;;;;12.23;2.85;;;23.40;99.90;;;;;;5047465;28;20032;-90
2023/07/10 11:25:01;;;;;;;10.02;2.88;;;23.40;99.90;;;;;;5044768;28;20028;-90
2023/07/10 11:27:39;;;;;;;14.13;2.92;;;23.40;99.90;;;;;;5033362;28;20035;-92
2023/07/10 11:30:32;;;;;;;11.48;2.63;;;23.40;99.90;;;;;;5076205;28;20049;-92
2023/07/10 11:33:04;;;;;;;10.95;2.58;;;23.60;99.90;;;;;;5046783;28;20024;-90
2023/07/10 11:36:13;;;;;;;9.00;2.45;;;23.60;99.90;;;;;;5044878;28;20455;-90
2023/07/10 11:39:12;;;;;;;7.93;2.17;;;23.70;99.90;;;;;;5044805;28;20301;-90
2023/07/10 11:41:43;;;;;;;9.00;2.33;;;23.80;99.90;;;;;;5057598;28;20327;-90
2023/07/10 11:44:19;;;;;;;9.88;2.33;;;23.90;99.90;;;;;;5029112;28;20040;-91
2023/07/10 11:46:59;;;;;;;11.60;2.65;;;24.00;99.90;;;;;;5047004;28;20036;-90
2023/07/10 11:49:35;;;;;;;9.90;2.60;;;24.00;99.90;;;;;;5050727;28;20029;-90
2023/07/10 11:52:15;;;;;;;7.80;2.03;;;24.00;99.90;;;;;;5052722;28;20312;-91
2023/07/10 11:55:01;;;;;;;9.85;2.55;;;24.10;99.90;;;;;;5043383;28;20121;-90
2023/07/10 11:57:33;;;;;;;8.40;2.33;;;24.10;99.90;;;;;;5046464;28;20323;-90
2023/07/10 12:00:24;;;;;;;9.68;2.30;;;24.10;99.90;;;;;;5080108;28;20031;-90
2023/07/10 12:03:17;;;;;;;10.35;2.30;;;24.00;99.90;;;;;;5038640;28;20074;-91
2023/07/10 12:05:45;;;;;;;11.07;2.30;;;23.90;99.90;;;;;;5026800;28;20056;-90
2023/07/10 12:08:23;;;;;;;8.90;2.22;;;23.90;99.90;;;;;;5029182;28;20033;-89
2023/07/10 12:10:52;;;;;;;9.35;2.08;;;23.80;99.90;;;;;;5063852;28;20028;-90
2023/07/10 12:13:29;;;;;;;8.55;2.55;;;23.80;99.90;;;;;;5063432;28;20036;-90
2023/07/10 12:16:11;;;;;;;9.65;2.10;;;23.90;99.90;;;;;;5060138;28;20131;-90
2023/07/10 12:18:43;;;;;;;5.55;1.88;;;23.90;99.90;;;;;;5043020;28;20036;-90
2023/07/10 12:21:17;;;;;;;7.28;1.75;;;24.00;99.90;;;;;;5044840;28;20119;-91
2023/07/10 12:23:54;;;;;;;8.35;2.05;;;24.10;99.90;;;;;;5064531;28;20036;-90
2023/07/10 12:26:36;;;;;;;9.68;2.08;;;24.10;99.90;;;;;;5081232;28;20036;-90
2023/07/10 12:29:13;;;;;;;8.60;1.75;;;24.10;99.90;;;;;;5063725;28;20086;-92
2023/07/10 12:31:45;;;;;;;6.45;1.80;;;24.20;99.90;;;;;;5097269;28;20024;-90
2023/07/10 12:34:39;;;;;;;8.10;1.60;;;24.10;99.90;;;;;;5059369;28;20100;-90
2023/07/10 12:37:24;;;;;;;;;;;24.20;99.60;;;;;;5055623;28;20040;-90
2023/07/10 12:40:00;;;;;;;8.32;1.50;;;24.10;98.90;;;;;;5053208;28;19971;-91
2023/07/10 12:42:38;;;;;;;6.40;1.70;;;24.10;99.60;;;;;;5049049;28;20103;-89
2023/07/10 12:45:32;;;;;;;8.98;1.83;;;24.20;99.30;;;;;;5046731;28;20209;-90
2023/07/10 12:48:15;;;;;;;6.50;1.50;;;24.20;99.20;;;;;;5060888;28;20464;-90
2023/07/10 12:51:12;;;;;;;8.68;2.08;;;24.30;98.90;;;;;;5043593;28;20036;-90
2023/07/10 12:53:48;;;;;;;5.85;1.60;;;24.30;98.40;;;;;;5046414;28;20024;-91
2023/07/10 12:56:57;;;;;;;8.75;1.88;;;24.30;98.00;;;;;;5062569;28;20028;-90
2023/07/10 12:59:35;;;;;;;5.97;1.80;;;24.40;97.30;;;;;;5061084;28;20055;-90
2023/07/10 13:02:26;;;;;;;3.53;1.17;;;24.40;97.50;;;;;;5042871;28;20039;-90
2023/07/10 13:04:58;;;;;;;7.95;1.73;;;24.40;96.20;;;;;;5052693;28;20039;-90
2023/07/10 13:07:58;;;;;;;5.40;1.50;;;24.40;96.70;;;;;;5049453;28;20370;-90
2023/07/10 13:10:59;;;;;;;5.15;1.30;;;24.40;96.50;;;;;;5049087;28;20024;-90
2023/07/10 13:13:35;;;;;;;5.28;1.50;;;24.30;95.60;;;;;;5026223;28;20326;-90
2023/07/10 13:16:04;;;;;;;5.53;1.77;;;24.30;96.20;;;;;;5045310;28;20024;-90
2023/07/10 13:18:47;;;;;;;4.55;1.65;;;24.20;95.60;;;;;;5054773;28;20040;-90
2023/07/10 13:21:16;;;;;;;6.88;1.40;;;23.90;95.20;;;;;;5066697;28;20299;-90
2023/07/10 13:24:06;;;;;;;4.70;1.40;;;24.00;95.30;;;;;;5059209;28;20450;-90
2023/07/10 13:26:45;;;;;;;7.25;1.63;;;24.00;95.20;;;;;;5036957;28;20427;-90
2023/07/10 13:29:34;;;;;;;6.45;1.40;;;24.00;95.50;;;;;;5048122;28;20052;-90
2023/07/10 13:35:14;;;;;;;7.03;1.52;;;24.30;96.40;;;;;;5057538;28;20458;-89
2023/07/10 13:37:42;;;;;;;6.95;1.75;;;24.30;95.70;;;;;;5049869;28;20044;-91
2023/07/10 13:40:21;;;;;;;8.32;1.70;;;24.10;95.50;;;;;;5054657;28;20083;-90
2023/07/10 13:43:17;;;;;;;6.85;1.33;;;24.10;95.30;;;;;;5036574;28;20035;-90
2023/07/10 13:45:55;;;;;;;4.05;1.20;;;24.30;93.90;;;;;;5041063;28;20318;-91
2023/07/10 13:48:42;;;;;;;8.25;1.70;;;24.30;93.10;;;;;;5059045;28;20040;-91
2023/07/10 13:51:11;;;;;;;4.93;1.60;;;24.30;93.50;;;;;;5028724;28;20024;-90
2023/07/10 13:53:43;;;;;;;5.43;1.70;;;24.30;93.70;;;;;;5044415;28;20032;-89
2023/07/10 13:56:24;;;;;;;7.18;1.80;;;24.40;94.40;;;;;;5063371;28;20054;-90
2023/07/10 13:58:53;;;;;;;6.55;1.60;;;24.50;94.20;;;;;;5062660;28;20036;-92
2023/07/10 14:01:20;;;;;;;4.93;1.60;;;24.50;94.20;;;;;;5044723;28;20028;-91
2023/07/10 14:03:57;;;;;;;8.48;1.60;;;24.50;93.90;;;;;;5030426;28;20119;-91
2023/07/10 14:06:36;;;;;;;5.85;1.85;;;24.50;93.70;;;;;;5063355;28;20040;-91
2023/07/10 14:09:33;;;;;;;6.25;1.85;;;24.60;94.00;;;;;;5049548;28;20115;-92
2023/07/10 14:12:24;;;;;;;6.22;1.50;;;24.60;93.70;;;;;;5067273;28;20048;-92
2023/07/10 14:14:50;;;;;;;6.22;1.60;;;24.60;93.70;;;;;;5047861;28;20114;-91
2023/07/10 14:17:28;;;;;;;6.80;1.70;;;24.50;94.10;;;;;;5029546;28;20391;-90
2023/07/10 14:20:07;;;;;;;;;;;24.60;94.10;;;;;;5038621;28;20032;-90
2023/07/10 14:22:38;;;;;;;5.35;1.50;;;24.60;94.10;;;;;;5067903;28;19938;-91
2023/07/10 14:25:19;;;;;;;7.28;1.63;;;24.60;94.50;;;;;;5047622;28;20067;-91
2023/07/10 14:28:17;;;;;;;9.55;1.92;;;24.60;94.10;;;;;;5070197;28;20039;-90
2023/07/10 14:30:48;;;;;;;6.32;1.70;;;24.70;94.60;;;;;;5040904;28;20059;-90
2023/07/10 14:33:18;;;;;;;8.88;2.20;;;24.70;94.90;;;;;;5046189;28;20024;-90
2023/07/10 14:35:47;;;;;;;9.48;2.08;;;24.90;95.10;;;;;;5061485;28;20032;-90
2023/07/10 14:38:27;;;;;;;7.18;1.88;;;24.90;95.20;;;;;;5083452;28;20078;-90
2023/07/10 14:41:04;;;;;;;9.70;2.20;;;24.80;95.10;;;;;;5046623;28;20047;-91
2023/07/10 14:43:31;;;;;;;7.82;1.90;;;24.90;95.30;;;;;;5046453;28;20039;-91
2023/07/10 14:45:59;;;;;;;8.55;2.17;;;25.00;95.60;;;;;;5047793;28;20067;-90
2023/07/10 14:48:27;;;;;;;9.85;2.70;;;25.00;95.60;;;;;;5024603;28;20036;-90
2023/07/10 14:50:56;;;;;;;5.95;1.73;;;25.10;95.80;;;;;;5056381;28;20025;-90
2023/07/10 14:53:28;;;;;;;7.13;1.77;;;25.20;95.90;;;;;;5044846;28;20143;-91
2023/07/10 14:56:01;;;;;;;8.98;1.80;;;25.30;96.10;;;;;;5046765;28;20067;-91
2023/07/10 14:58:31;;;;;;;7.65;2.03;;;25.20;96.00;;;;;;5066562;28;20040;-91
2023/07/10 15:00:58;;;;;;;9.90;1.98;;;25.20;95.70;;;;;;5045788;28;20052;-89
2023/07/10 15:03:24;;;;;;;8.50;1.92;;;25.20;95.80;;;;;;5065436;28;20055;-89
2023/07/10 15:05:54;;;;;;;7.35;2.10;;;25.30;95.90;;;;;;5066899;28;20404;-90
2023/07/10 15:08:21;;;;;;;7.88;2.00;;;25.40;95.50;;;;;;5065610;28;20475;-89
2023/07/10 15:10:47;;;;;;;7.05;1.80;;;25.40;95.70;;;;;;5100475;28;20081;-91
2023/07/10 15:13:21;;;;;;;5.97;1.40;;;25.30;95.60;;;;;;5082472;28;20134;-90
2023/07/10 15:15:51;;;;;;;9.10;1.98;;;25.40;95.40;;;;;;5046327;28;20028;-90
2023/07/10 15:18:24;;;;;;;6.60;1.95;;;25.40;94.90;;;;;;5083566;28;20024;-89
2023/07/10 15:20:50;;;;;;;7.85;1.88;;;25.40;94.80;;;;;;5082247;28;20040;-91
2023/07/10 15:23:25;;;;;;;6.60;1.80;;;25.40;94.90;;;;;;5100161;28;20105;-89
2023/07/10 15:25:53;;;;;;;8.18;1.63;;;25.40;94.00;;;;;;5066167;28;20096;-90
2023/07/10 15:28:20;;;;;;;8.35;2.10;;;25.40;94.90;;;;;;5066090;28;20040;-89
2023/07/10 15:31:12;;;;;;;7.40;1.70;;;25.40;94.60;;;;;;5065620;28;20032;-90
2023/07/10 15:33:41;;;;;;;6.47;1.63;;;25.30;94.80;;;;;;5038394;28;20071;-92
2023/07/10 15:36:17;;;;;;;7.60;1.80;;;25.30;94.60;;;;;;5100087;28;20028;-90
2023/07/10 15:38:44;;;;;;;6.63;2.05;;;25.30;94.80;;;;;;5065392;28;20056;-89
2023/07/10 15:41:23;;;;;;;9.45;2.13;;;25.40;95.00;;;;;;5049276;28;20031;-89
2023/07/10 15:43:49;;;;;;;7.72;1.63;;;25.50;95.10;;;;;;5057052;28;20313;-90
2023/07/10 15:46:19;;;;;;;9.50;1.98;;;25.40;94.90;;;;;;5010141;28;20064;-94
2023/07/10 15:48:46;;;;;;;9.40;2.17;;;25.50;95.10;;;;;;5009982;28;20032;-91
2023/07/10 15:51:25;;;;;;;7.70;2.05;;;25.50;95.20;;;;;;5048480;28;20035;-92
2023/07/10 15:53:53;;;;;;;7.22;1.70;;;25.50;94.50;;;;;;5084065;28;20143;-90
2023/07/10 15:56:27;;;;;;;10.45;2.63;;;25.60;94.50;;;;;;5051355;28;20115;-90
2023/07/10 15:58:53;;;;;;;7.35;1.85;;;25.70;94.90;;;;;;5048269;28;20040;-89
2023/07/10 16:01:20;;;;;;;6.90;1.88;;;25.60;94.70;;;;;;5064692;28;20116;-89
2023/07/10 16:03:50;;;;;;;7.55;2.08;;;25.60;94.70;;;;;;5035361;28;20432;-90
2023/07/10 16:06:16;;;;;;;7.45;1.90;;;25.50;94.80;;;;;;5081841;28;20024;-89
2023/07/10 16:08:42;;;;;;;7.18;1.92;;;25.30;95.20;;;;;;5064020;28;20543;-89
2023/07/10 16:11:19;;;;;;;7.75;1.98;;;25.30;95.10;;;;;;5063888;28;20028;-90
2023/07/10 16:13:48;;;;;;;7.57;1.80;;;25.20;94.90;;;;;;5079410;28;20039;-89
2023/07/10 16:16:14;;;;;;;7.53;1.90;;;25.20;95.60;;;;;;5062854;28;20024;-88
2023/07/10 16:18:41;;;;;;;8.15;1.92;;;25.30;95.50;;;;;;5063241;28;20032;-88
2023/07/10 16:21:21;;;;;;;7.40;1.77;;;25.40;95.40;;;;;;5046330;28;20457;-88
2023/07/10 16:23:47;;;;;;;6.50;1.77;;;25.60;94.60;;;;;;5042453;28;20056;-88
2023/07/10 16:26:15;;;;;;;6.15;1.52;;;25.70;94.80;;;;;;5076961;28;20045;-88
2023/07/10 16:28:43;;;;;;;8.48;1.90;;;25.70;94.40;;;;;;5060032;28;20040;-88
2023/07/10 16:31:15;;;;;;;9.25;2.08;;;25.60;94.40;;;;;;5039728;28;20045;-88
2023/07/10 16:33:41;;;;;;;7.80;1.63;;;25.40;94.50;;;;;;5059159;28;20072;-88
2023/07/10 16:36:14;;;;;;;6.10;1.90;;;25.40;94.70;;;;;;5061557;28;20041;-88
2023/07/10 16:38:40;;;;;;;5.93;1.70;;;25.30;95.00;;;;;;5061703;28;20033;-88
2023/07/10 16:41:15;;;;;;;7.72;1.80;;;25.30;94.90;;;;;;5028572;28;20033;-88
2023/07/10 16:43:41;;;;;;;8.02;2.05;;;25.40;94.70;;;;;;5061407;28;20489;-88
2023/07/10 16:46:08;;;;;;;6.15;1.92;;;25.30;94.30;;;;;;5025735;28;20033;-88
2023/07/10 16:48:35;;;;;;;6.63;1.85;;;25.40;94.50;;;;;;5040670;28;20044;-88
2023/07/10 16:51:01;;;;;;;5.65;1.73;;;25.40;94.50;;;;;;5023804;28;20033;-88
2023/07/10 16:53:33;;;;;;;8.05;1.80;;;25.40;94.20;;;;;;5058167;28;20364;-87
2023/07/10 16:56:02;;;;;;;8.60;1.70;;;25.40;93.90;;;;;;5056597;28;20474;-88
2023/07/10 16:58:31;;;;;;;7.13;1.50;;;25.40;93.90;;;;;;5072082;28;20029;-88
2023/07/10 17:00:58;;;;;;;5.70;1.50;;;25.40;93.80;;;;;;5055349;28;20420;-88
2023/07/10 17:03:28;;;;;;;6.93;1.63;;;25.40;93.60;;;;;;5041467;28;20060;-88
2023/07/10 17:05:55;;;;;;;6.45;1.75;;;25.30;93.10;;;;;;5038108;28;20424;-89
2023/07/10 17:08:29;;;;;;;6.38;1.60;;;24.90;93.00;;;;;;5052385;28;20090;-89
2023/07/10 17:11:00;;;;;;;6.88;1.75;;;24.70;93.40;;;;;;5054351;28;20029;-89
2023/07/10 17:13:29;;;;;;;4.82;1.50;;;24.50;93.60;;;;;;5038426;28;20033;-88
2023/07/10 17:15:56;;;;;;;6.88;1.70;;;24.30;93.90;;;;;;5038659;28;20028;-88
2023/07/10 17:18:26;;;;;;;6.90;1.80;;;24.20;94.10;;;;;;5038486;28;20025;-89
2023/07/10 17:20:58;;;;;;;7.75;2.03;;;24.10;93.70;;;;;;5066511;28;20033;-89
2023/07/10 17:23:33;;;;;;;11.00;1.92;;;24.00;94.00;;;;;;5074953;28;20032;-91
2023/07/10 17:26:00;;;;;;;7.10;1.95;;;23.80;94.20;;;;;;5074348;28;20032;-90
2023/07/10 17:28:36;;;;;;;6.30;2.10;;;23.60;94.60;;;;;;5075147;28;20025;-89
2023/07/10 17:31:14;;;;;;;6.03;1.60;;;23.60;95.40;;;;;;5041470;28;20071;-89
2023/07/10 17:33:46;;;;;;;7.35;1.52;;;23.50;94.60;;;;;;5057658;28;20029;-89
2023/07/10 17:36:17;;;;;;;6.25;1.48;;;23.40;94.50;;;;;;5058533;28;20433;-89
2023/07/10 17:38:43;;;;;;;6.75;1.90;;;23.30;94.50;;;;;;5041617;28;20036;-90
2023/07/10 17:41:21;;;;;;;4.93;1.60;;;23.30;94.70;;;;;;5058670;28;20029;-89
2023/07/10 17:44:12;;;;;;;5.70;1.63;;;23.30;94.70;;;;;;5048633;28;20063;-88
2023/07/10 17:46:40;;;;;;;7.32;1.90;;;23.10;94.60;;;;;;5048241;28;20054;-91
2023/07/10 17:49:10;;;;;;;7.43;1.70;;;23.10;94.70;;;;;;5058114;28;20040;-88
2023/07/10 17:51:39;;;;;;;4.15;1.30;;;23.00;94.30;;;;;;5040116;28;20032;-89
2023/07/10 17:54:35;;;;;;;5.07;1.60;;;23.00;94.50;;;;;;5033865;28;20116;-89
2023/07/10 17:57:02;;;;;;;4.97;1.30;;;23.00;94.40;;;;;;5041681;28;20470;-88
2023/07/10 17:59:29;;;;;;;9.35;1.75;;;22.90;94.80;;;;;;5036790;28;20420;-89
2023/07/10 18:01:59;;;;;;;7.00;1.50;;;22.90;94.90;;;;;;5031100;28;20040;-88
2023/07/10 18:04:37;;;;;;;6.75;1.77;;;23.00;95.30;;;;;;5071348;28;20075;-88
2023/07/10 18:07:03;;;;;;;6.68;1.58;;;23.00;95.40;;;;;;5052089;28;20039;-87
2023/07/10 18:09:31;;;;;;;6.50;1.73;;;22.90;95.50;;;;;;5046568;28;20423;-89
2023/07/10 18:11:59;;;;;;;6.20;1.42;;;22.90;95.60;;;;;;5035556;28;20499;-87
2023/07/10 18:14:30;;;;;;;6.93;1.67;;;22.90;95.60;;;;;;5046715;28;20025;-89
2023/07/10 18:16:56;;;;;;;6.53;1.70;;;22.80;95.80;;;;;;5059032;28;20052;-89
2023/07/10 18:19:22;;;;;;;8.45;1.60;;;22.80;95.80;;;;;;5032685;28;20142;-88
2023/07/10 18:21:51;;;;;;;7.70;1.80;;;22.70;95.80;;;;;;5039517;28;20414;-88
2023/07/10 18:24:22;;;;;;;6.25;1.55;;;22.80;96.00;;;;;;5040671;28;20158;-88